createdAt,value
2018-06-30T00:01:42.796Z,18.19
2018-06-30T00:04:10.788Z,18.16
2018-06-30T00:06:38.856Z,18.08
2018-06-30T00:09:08.813Z,18.09
2018-06-30T00:11:37.197Z,18.08
2018-06-30T00:14:05.200Z,18.10
2018-06-30T00:16:33.232Z,18.01
2018-06-30T00:19:01.284Z,17.99
2018-06-30T00:21:29.323Z,18.01
2018-06-30T00:23:57.324Z,17.86
2018-06-30T00:26:25.347Z,17.91
2018-06-30T00:28:53.308Z,17.82
2018-06-30T00:31:21.313Z,17.70
2018-06-30T00:33:49.296Z,17.67
2018-06-30T00:36:17.324Z,17.53
2018-06-30T00:38:45.377Z,17.53
2018-06-30T00:41:13.372Z,17.51
2018-06-30T00:43:41.386Z,17.38
2018-06-30T00:46:09.371Z,17.33
2018-06-30T00:48:37.411Z,17.38
2018-06-30T00:51:05.398Z,17.29
2018-06-30T00:53:33.440Z,17.12
2018-06-30T00:56:01.420Z,17.01
2018-06-30T00:58:29.409Z,16.89
2018-06-30T01:00:57.413Z,16.84
2018-06-30T01:03:25.432Z,16.91
2018-06-30T01:05:53.453Z,16.80
2018-06-30T01:08:21.460Z,16.86
2018-06-30T01:10:49.475Z,16.79
2018-06-30T01:13:17.471Z,16.78
2018-06-30T01:15:45.580Z,16.85
2018-06-30T01:18:13.589Z,16.77
2018-06-30T01:20:41.556Z,16.60
2018-06-30T01:23:09.594Z,16.58
2018-06-30T01:25:37.580Z,16.42
2018-06-30T01:28:06.069Z,16.31
2018-06-30T01:30:34.071Z,16.25
2018-06-30T01:33:02.054Z,16.20
2018-06-30T01:35:30.023Z,16.14
2018-06-30T01:37:58.035Z,16.12
2018-06-30T01:40:26.016Z,16.06
2018-06-30T01:42:54.013Z,16.01
2018-06-30T01:45:21.988Z,16.01
2018-06-30T01:47:49.974Z,15.98
2018-06-30T01:50:17.936Z,16.00
2018-06-30T01:52:46.127Z,15.88
2018-06-30T01:55:14.193Z,15.92
2018-06-30T01:57:42.177Z,15.86
2018-06-30T02:00:10.168Z,15.93
2018-06-30T02:02:38.200Z,15.86
2018-06-30T02:05:06.248Z,15.75
2018-06-30T02:07:34.250Z,15.77
2018-06-30T02:10:02.238Z,15.70
2018-06-30T02:12:30.229Z,15.44
2018-06-30T02:14:58.220Z,15.33
2018-06-30T02:17:26.220Z,15.28
2018-06-30T02:19:54.255Z,15.21
2018-06-30T02:22:22.280Z,15.17
2018-06-30T02:24:50.312Z,15.12
2018-06-30T02:27:18.332Z,15.08
2018-06-30T02:29:46.343Z,14.99
2018-06-30T02:32:14.329Z,14.92
2018-06-30T02:34:42.300Z,14.85
2018-06-30T02:37:10.293Z,14.76
2018-06-30T02:39:38.309Z,14.77
2018-06-30T02:42:06.329Z,14.67
2018-06-30T02:44:34.318Z,14.64
2018-06-30T02:47:02.293Z,14.60
2018-06-30T02:49:30.428Z,14.47
2018-06-30T02:51:58.411Z,14.43
2018-06-30T02:54:26.410Z,14.39
2018-06-30T02:56:55.057Z,14.38
2018-06-30T02:59:23.665Z,14.32
2018-06-30T03:01:51.648Z,14.27
2018-06-30T03:04:19.621Z,14.38
2018-06-30T03:06:47.597Z,14.38
2018-06-30T03:09:15.616Z,14.30
2018-06-30T03:11:43.658Z,14.32
2018-06-30T03:14:11.705Z,14.21
2018-06-30T03:16:39.689Z,14.22
2018-06-30T03:19:07.700Z,14.19
2018-06-30T03:21:35.668Z,14.21
2018-06-30T03:24:03.788Z,14.21
2018-06-30T03:26:31.769Z,14.10
2018-06-30T03:28:59.880Z,14.11
2018-06-30T03:31:27.970Z,14.12
2018-06-30T03:33:55.883Z,14.05
2018-06-30T03:36:24.697Z,14.11
2018-06-30T03:38:52.717Z,14.27
2018-06-30T03:41:20.693Z,14.20
2018-06-30T03:43:48.697Z,14.28
2018-06-30T03:46:16.689Z,14.32
2018-06-30T03:48:44.720Z,14.37
2018-06-30T03:51:12.725Z,14.39
2018-06-30T03:53:40.752Z,14.25
2018-06-30T03:56:08.727Z,14.18
2018-06-30T03:58:36.707Z,14.24
2018-06-30T04:01:04.689Z,14.36
2018-06-30T04:03:32.661Z,14.34
2018-06-30T04:06:00.677Z,14.31
2018-06-30T04:08:28.768Z,14.40
2018-06-30T04:10:56.772Z,14.39
2018-06-30T04:13:24.797Z,14.55
2018-06-30T04:15:52.820Z,14.60
2018-06-30T04:18:20.851Z,14.53
2018-06-30T04:20:48.841Z,14.45
2018-06-30T04:23:16.835Z,14.44
2018-06-30T04:25:44.813Z,14.49
2018-06-30T04:28:12.813Z,14.47
2018-06-30T04:30:40.833Z,14.59
2018-06-30T04:33:09.097Z,14.53
2018-06-30T04:35:37.281Z,14.50
2018-06-30T04:38:05.596Z,14.51
2018-06-30T04:40:33.653Z,14.54
2018-06-30T04:43:01.728Z,14.55
2018-06-30T04:45:29.969Z,14.69
2018-06-30T04:47:58.101Z,14.84
2018-06-30T04:50:26.113Z,14.93
2018-06-30T04:52:54.110Z,14.94
2018-06-30T04:55:22.120Z,15.00
2018-06-30T04:57:50.149Z,15.12
2018-06-30T05:00:18.149Z,15.09
2018-06-30T05:02:46.221Z,15.20
2018-06-30T05:05:14.265Z,15.34
2018-06-30T05:07:42.266Z,15.38
2018-06-30T05:10:10.268Z,15.41
2018-06-30T05:12:38.281Z,15.48
2018-06-30T05:15:06.540Z,15.92
2018-06-30T05:17:34.569Z,17.53
2018-06-30T05:20:02.569Z,19.52
2018-06-30T05:22:30.686Z,21.11
2018-06-30T05:24:58.681Z,22.64
2018-06-30T05:27:26.697Z,24.02
2018-06-30T05:29:54.696Z,24.79
2018-06-30T05:32:22.675Z,25.15
2018-06-30T05:34:50.688Z,25.75
2018-06-30T05:37:18.721Z,26.76
2018-06-30T05:39:46.777Z,28.17
2018-06-30T05:42:14.799Z,29.08
2018-06-30T05:44:42.831Z,29.60
2018-06-30T05:47:10.857Z,29.67
2018-06-30T05:49:38.852Z,30.02
2018-06-30T05:52:06.878Z,30.38
2018-06-30T05:54:34.901Z,30.10
2018-06-30T05:57:02.905Z,29.07
2018-06-30T05:59:30.921Z,29.67
2018-06-30T06:01:58.920Z,30.45
2018-06-30T06:04:26.921Z,29.32
2018-06-30T06:06:54.957Z,29.05
2018-06-30T06:09:22.976Z,29.96
2018-06-30T06:14:23.631Z,28.00
2018-06-30T06:16:51.638Z,27.08
2018-06-30T06:19:19.656Z,27.09
2018-06-30T06:21:47.676Z,27.01
2018-06-30T06:24:15.678Z,27.52
2018-06-30T06:26:43.689Z,28.90
2018-06-30T06:29:11.708Z,29.79
2018-06-30T06:31:39.677Z,29.81
2018-06-30T06:34:07.689Z,29.96
2018-06-30T06:36:36.395Z,29.61
2018-06-30T06:39:06.975Z,29.38
2018-06-30T06:41:35.044Z,28.62
2018-06-30T06:44:02.980Z,28.68
2018-06-30T06:46:31.173Z,29.06
2018-06-30T06:48:59.175Z,28.79
2018-06-30T06:51:27.361Z,29.50
2018-06-30T06:53:55.403Z,28.68
2018-06-30T06:56:23.404Z,28.01
2018-06-30T06:58:51.908Z,28.05
2018-06-30T07:01:19.913Z,27.92
2018-06-30T07:03:48.004Z,27.78
2018-06-30T07:06:16.021Z,27.58
2018-06-30T07:08:44.112Z,27.62
2018-06-30T07:11:12.137Z,28.15
2018-06-30T07:13:40.214Z,28.44
2018-06-30T07:16:08.692Z,28.17
2018-06-30T07:18:36.684Z,28.22
2018-06-30T07:21:04.721Z,27.71
2018-06-30T07:23:32.800Z,27.32
2018-06-30T07:26:00.839Z,27.32
2018-06-30T07:28:28.863Z,27.65
2018-06-30T07:30:56.865Z,27.54
2018-06-30T07:33:24.897Z,27.21
2018-06-30T07:35:53.043Z,27.16
2018-06-30T07:38:20.881Z,26.58
2018-06-30T07:40:48.899Z,26.29
2018-06-30T07:43:16.996Z,26.40
2018-06-30T07:45:44.964Z,26.48
2018-06-30T07:48:12.989Z,26.39
2018-06-30T07:50:41.020Z,25.71
2018-06-30T07:53:09.128Z,25.14
2018-06-30T07:55:37.165Z,24.70
2018-06-30T07:58:05.380Z,25.36
2018-06-30T08:00:33.495Z,25.44
2018-06-30T08:03:01.549Z,24.85
2018-06-30T08:05:29.788Z,24.82
2018-06-30T08:07:57.643Z,24.93
2018-06-30T08:10:25.650Z,24.88
2018-06-30T08:12:53.717Z,24.92
2018-06-30T08:15:21.748Z,25.32
2018-06-30T08:17:49.765Z,24.75
2018-06-30T08:20:17.768Z,24.78
2018-06-30T08:22:45.800Z,24.66
2018-06-30T08:25:13.819Z,24.81
2018-06-30T08:27:41.861Z,24.99
2018-06-30T08:30:09.845Z,25.39
2018-06-30T08:32:37.900Z,25.53
2018-06-30T08:35:05.949Z,24.94
2018-06-30T08:37:33.961Z,24.91
2018-06-30T08:40:01.945Z,25.03
2018-06-30T08:42:29.998Z,25.25
2018-06-30T08:44:58.039Z,25.36
2018-06-30T08:47:26.161Z,25.09
2018-06-30T08:49:54.248Z,24.54
2018-06-30T08:52:22.256Z,24.29
2018-06-30T08:54:50.253Z,24.22
2018-06-30T08:57:18.289Z,24.21
2018-06-30T08:59:46.317Z,24.32
2018-06-30T09:02:14.301Z,24.11
2018-06-30T09:04:42.332Z,24.23
2018-06-30T09:07:10.389Z,24.22
2018-06-30T09:09:38.689Z,24.30
2018-06-30T09:12:06.958Z,24.47
2018-06-30T09:14:34.969Z,24.65
2018-06-30T09:17:02.949Z,24.64
2018-06-30T09:19:30.969Z,24.69
2018-06-30T09:21:59.049Z,24.20
2018-06-30T09:24:27.060Z,24.34
2018-06-30T09:26:55.117Z,24.60
2018-06-30T09:29:23.144Z,24.59
2018-06-30T09:31:51.149Z,24.87
2018-06-30T09:34:19.181Z,25.05
2018-06-30T09:36:47.177Z,24.94
2018-06-30T09:39:15.197Z,25.05
2018-06-30T09:41:43.206Z,24.82
2018-06-30T09:44:11.229Z,24.77
2018-06-30T09:46:39.236Z,24.33
2018-06-30T09:49:07.461Z,24.29
2018-06-30T09:51:35.528Z,24.61
2018-06-30T09:54:03.530Z,24.85
2018-06-30T09:56:31.540Z,24.86
2018-06-30T09:58:59.544Z,24.81
2018-06-30T10:01:27.540Z,25.02
2018-06-30T10:03:55.561Z,25.09
2018-06-30T10:06:23.628Z,24.93
2018-06-30T10:08:51.653Z,25.25
2018-06-30T10:11:19.713Z,25.69
2018-06-30T10:13:47.953Z,25.31
2018-06-30T10:16:15.980Z,25.40
2018-06-30T10:18:44.005Z,25.47
2018-06-30T10:21:12.027Z,25.20
2018-06-30T10:23:40.031Z,25.40
2018-06-30T10:26:08.125Z,25.48
2018-06-30T10:28:36.232Z,25.20
2018-06-30T10:31:04.225Z,25.18
2018-06-30T10:33:32.271Z,25.24
2018-06-30T10:36:00.298Z,25.45
2018-06-30T10:38:28.310Z,25.67
2018-06-30T10:40:56.308Z,25.45
2018-06-30T10:43:24.417Z,25.45
2018-06-30T10:45:52.528Z,25.65
2018-06-30T10:48:20.524Z,26.02
2018-06-30T10:50:48.537Z,25.92
2018-06-30T10:53:16.594Z,25.97
2018-06-30T10:55:44.613Z,25.95
2018-06-30T10:58:12.683Z,25.75
2018-06-30T11:00:40.689Z,25.84
2018-06-30T11:03:08.697Z,25.98
2018-06-30T11:05:36.864Z,25.80
2018-06-30T11:08:04.869Z,26.04
2018-06-30T11:10:32.909Z,26.00
2018-06-30T11:13:00.923Z,26.34
2018-06-30T11:15:28.946Z,26.13
2018-06-30T11:17:56.956Z,26.14
2018-06-30T11:20:24.977Z,26.18
2018-06-30T11:22:53.000Z,25.90
2018-06-30T11:25:21.016Z,26.09
2018-06-30T11:27:49.065Z,26.12
2018-06-30T11:30:18.073Z,26.16
2018-06-30T11:32:46.231Z,26.60
2018-06-30T11:35:14.236Z,26.24
2018-06-30T11:37:42.253Z,26.21
2018-06-30T11:40:10.263Z,26.09
2018-06-30T11:42:38.269Z,26.09
2018-06-30T11:45:06.392Z,26.69
2018-06-30T11:47:34.406Z,26.89
2018-06-30T11:50:02.409Z,26.12
2018-06-30T11:52:30.446Z,25.78
2018-06-30T11:54:58.491Z,26.19
2018-06-30T11:57:26.505Z,26.20
2018-06-30T11:59:54.500Z,26.34
2018-06-30T12:02:22.481Z,26.36
2018-06-30T12:04:50.508Z,26.34
2018-06-30T12:07:18.548Z,26.12
2018-06-30T12:09:46.534Z,26.29
2018-06-30T12:12:14.544Z,26.45
2018-06-30T12:14:42.580Z,26.67
2018-06-30T12:17:10.568Z,26.57
2018-06-30T12:19:38.620Z,26.53
2018-06-30T12:22:06.657Z,26.61
2018-06-30T12:24:34.988Z,26.76
2018-06-30T12:27:02.999Z,26.87
2018-06-30T12:29:31.000Z,26.78
2018-06-30T12:31:59.036Z,26.62
2018-06-30T12:34:27.006Z,26.68
2018-06-30T12:36:55.124Z,26.90
2018-06-30T12:39:23.235Z,27.09
2018-06-30T12:41:51.232Z,26.83
2018-06-30T12:44:20.259Z,26.45
2018-06-30T12:46:48.335Z,26.12
2018-06-30T12:49:16.362Z,25.99
2018-06-30T12:51:44.409Z,26.22
2018-06-30T12:54:12.485Z,26.51
2018-06-30T12:56:40.511Z,26.65
2018-06-30T12:59:08.578Z,26.47
2018-06-30T13:01:36.636Z,26.36
2018-06-30T13:04:04.909Z,26.09
2018-06-30T13:06:32.929Z,25.92
2018-06-30T13:09:01.069Z,26.38
2018-06-30T13:11:29.197Z,26.13
2018-06-30T13:13:57.357Z,26.26
2018-06-30T13:16:25.499Z,26.55
2018-06-30T13:18:53.820Z,26.49
2018-06-30T13:21:21.848Z,26.30
2018-06-30T13:23:49.992Z,26.26
2018-06-30T13:26:18.005Z,26.30
2018-06-30T13:28:46.114Z,26.44
2018-06-30T13:31:14.032Z,26.48
2018-06-30T13:33:42.005Z,26.87
2018-06-30T13:36:10.012Z,26.56
2018-06-30T13:38:38.033Z,26.43
2018-06-30T13:41:06.362Z,26.67
2018-06-30T13:43:34.365Z,27.02
2018-06-30T13:46:02.369Z,26.79
2018-06-30T13:48:30.388Z,26.22
2018-06-30T13:50:58.417Z,26.08
2018-06-30T13:53:26.440Z,26.38
2018-06-30T13:55:54.457Z,26.64
2018-06-30T13:58:22.500Z,26.71
2018-06-30T14:00:50.578Z,26.85
2018-06-30T14:03:18.568Z,26.87
2018-06-30T14:05:46.589Z,26.76
2018-06-30T14:08:14.645Z,26.59
2018-06-30T14:10:42.649Z,26.38
2018-06-30T14:13:10.667Z,26.51
2018-06-30T14:15:38.689Z,26.58
2018-06-30T14:18:06.828Z,26.39
2018-06-30T14:20:34.840Z,26.67
2018-06-30T14:23:02.844Z,26.58
2018-06-30T14:25:31.329Z,26.73
2018-06-30T14:27:59.364Z,26.61
2018-06-30T14:30:27.399Z,26.47
2018-06-30T14:32:55.454Z,26.56
2018-06-30T14:35:23.471Z,26.88
2018-06-30T14:37:51.482Z,27.00
2018-06-30T14:40:19.472Z,26.94
2018-06-30T14:42:47.524Z,27.19
2018-06-30T14:45:15.541Z,27.11
2018-06-30T14:47:43.584Z,27.32
2018-06-30T14:50:11.637Z,26.90
2018-06-30T14:52:39.673Z,26.84
2018-06-30T14:55:07.724Z,27.01
2018-06-30T14:57:35.723Z,26.80
2018-06-30T15:00:05.666Z,26.94
2018-06-30T15:02:33.777Z,27.01
2018-06-30T15:05:01.797Z,27.24
2018-06-30T15:07:29.848Z,27.40
2018-06-30T15:09:57.797Z,27.24
2018-06-30T15:12:25.901Z,27.00
2018-06-30T15:14:54.461Z,26.78
2018-06-30T15:17:22.465Z,26.66
2018-06-30T15:19:50.446Z,26.74
2018-06-30T15:22:18.461Z,27.03
2018-06-30T15:24:46.461Z,27.11
2018-06-30T15:27:14.457Z,27.17
2018-06-30T15:29:42.461Z,27.18
2018-06-30T15:32:10.507Z,27.21
2018-06-30T15:34:38.496Z,27.19
2018-06-30T15:37:06.501Z,26.60
2018-06-30T15:39:34.564Z,26.44
2018-06-30T15:42:02.585Z,26.39
2018-06-30T15:44:30.582Z,26.21
2018-06-30T15:46:58.812Z,26.38
2018-06-30T15:49:26.832Z,26.68
2018-06-30T15:51:54.816Z,26.69
2018-06-30T15:54:22.821Z,26.91
2018-06-30T15:56:50.832Z,27.10
2018-06-30T15:59:18.877Z,26.91
2018-06-30T16:01:46.884Z,26.33
2018-06-30T16:04:14.870Z,25.99
2018-06-30T16:06:42.881Z,25.88
2018-06-30T16:09:11.781Z,26.04
2018-06-30T16:11:39.780Z,26.18
2018-06-30T16:14:08.716Z,26.19
2018-06-30T16:16:36.902Z,26.14
2018-06-30T16:19:04.938Z,26.09
2018-06-30T16:21:33.156Z,26.13
2018-06-30T16:24:01.313Z,26.11
2018-06-30T16:26:29.456Z,26.06
2018-06-30T16:28:57.590Z,26.24
2018-06-30T16:31:25.527Z,26.07
2018-06-30T16:33:53.545Z,26.16
2018-06-30T16:36:21.884Z,25.98
2018-06-30T16:38:49.908Z,25.91
2018-06-30T16:41:17.928Z,25.92
2018-06-30T16:43:46.024Z,25.86
2018-06-30T16:46:13.990Z,25.79
2018-06-30T16:48:41.993Z,25.68
2018-06-30T16:51:09.995Z,25.54
2018-06-30T16:53:37.980Z,25.62
2018-06-30T16:56:06.026Z,25.82
2018-06-30T16:58:34.055Z,25.85
2018-06-30T17:01:02.052Z,25.87
2018-06-30T17:03:31.114Z,25.97
2018-06-30T17:05:59.132Z,25.87
2018-06-30T17:08:27.137Z,25.76
2018-06-30T17:10:55.156Z,25.62
2018-06-30T17:13:23.202Z,25.73
2018-06-30T17:15:51.237Z,25.60
2018-06-30T17:18:19.289Z,25.33
2018-06-30T17:20:47.348Z,25.39
2018-06-30T17:23:15.451Z,25.42
2018-06-30T17:25:43.488Z,25.40
2018-06-30T17:28:11.577Z,25.37
2018-06-30T17:30:39.647Z,25.47
2018-06-30T17:33:07.668Z,25.38
2018-06-30T17:35:35.665Z,25.44
2018-06-30T17:38:03.686Z,25.35
2018-06-30T17:40:31.667Z,25.31
2018-06-30T17:42:59.712Z,25.35
2018-06-30T17:45:27.725Z,25.14
2018-06-30T17:47:55.845Z,25.16
2018-06-30T17:50:23.860Z,24.99
2018-06-30T17:52:51.921Z,24.94
2018-06-30T17:55:19.928Z,24.85
2018-06-30T17:57:47.948Z,24.78
2018-06-30T18:00:15.940Z,24.77
2018-06-30T18:02:43.962Z,24.84
2018-06-30T18:05:11.950Z,24.84
2018-06-30T18:07:39.933Z,24.91
2018-06-30T18:10:07.969Z,24.61
2018-06-30T18:12:35.957Z,24.58
2018-06-30T18:15:04.045Z,24.56
2018-06-30T18:17:32.077Z,24.45
2018-06-30T18:20:00.780Z,24.17
2018-06-30T18:22:28.786Z,24.07
2018-06-30T18:24:56.860Z,23.95
2018-06-30T18:27:25.056Z,23.89
2018-06-30T18:29:53.157Z,23.85
2018-06-30T18:32:22.176Z,23.77
2018-06-30T18:34:50.201Z,23.72
2018-06-30T18:37:18.210Z,23.68
2018-06-30T18:39:46.404Z,23.54
2018-06-30T18:42:14.589Z,23.55
2018-06-30T18:44:42.656Z,23.49
2018-06-30T18:47:10.841Z,23.52
2018-06-30T18:49:38.837Z,23.54
2018-06-30T18:52:06.984Z,23.60
2018-06-30T18:54:35.033Z,23.50
2018-06-30T18:57:03.057Z,23.41
2018-06-30T18:59:31.117Z,23.27
2018-06-30T19:01:59.087Z,23.26
2018-06-30T19:04:27.098Z,23.20
2018-06-30T19:06:55.081Z,23.17
2018-06-30T19:09:23.240Z,23.15
2018-06-30T19:11:51.313Z,23.04
2018-06-30T19:14:19.349Z,22.92
2018-06-30T19:16:47.339Z,22.99
2018-06-30T19:19:15.375Z,22.81
2018-06-30T19:21:43.399Z,22.91
2018-06-30T19:24:11.577Z,22.89
2018-06-30T19:26:39.690Z,22.78
2018-06-30T19:29:07.644Z,22.68
2018-06-30T19:31:35.612Z,22.59
2018-06-30T19:34:03.873Z,22.51
2018-06-30T19:36:32.006Z,22.57
2018-06-30T19:39:00.150Z,22.58
2018-06-30T19:41:28.312Z,22.58
2018-06-30T19:43:56.300Z,22.59
2018-06-30T19:46:25.035Z,22.53
2018-06-30T19:48:53.097Z,22.56
2018-06-30T19:51:21.073Z,22.56
2018-06-30T19:53:49.074Z,22.53
2018-06-30T19:56:17.225Z,22.54
2018-06-30T19:58:45.342Z,22.51
2018-06-30T20:01:13.402Z,22.41
2018-06-30T20:03:41.435Z,22.30
2018-06-30T20:06:09.423Z,22.23
2018-06-30T20:08:37.441Z,22.11
2018-06-30T20:11:05.520Z,22.08
2018-06-30T20:13:33.590Z,21.93
2018-06-30T20:16:01.853Z,21.85
2018-06-30T20:18:29.939Z,21.78
2018-06-30T20:20:58.003Z,21.64
2018-06-30T20:23:25.985Z,21.60
2018-06-30T20:25:53.980Z,21.47
2018-06-30T20:28:22.185Z,21.30
2018-06-30T20:30:50.221Z,21.12
2018-06-30T20:33:18.205Z,20.98
2018-06-30T20:35:46.224Z,20.94
2018-06-30T20:38:14.192Z,20.83
2018-06-30T20:40:42.202Z,20.77
2018-06-30T20:43:10.237Z,20.56
2018-06-30T20:45:38.265Z,20.35
2018-06-30T20:48:06.270Z,20.53
2018-06-30T20:50:34.325Z,20.17
2018-06-30T20:53:02.381Z,19.87
2018-06-30T20:55:30.412Z,19.85
2018-06-30T20:57:58.435Z,19.84
2018-06-30T21:00:26.553Z,19.85
2018-06-30T21:02:54.601Z,19.81
2018-06-30T21:05:22.599Z,19.89
2018-06-30T21:07:50.675Z,19.71
2018-06-30T21:10:18.669Z,19.81
2018-06-30T21:12:46.681Z,19.75
2018-06-30T21:15:14.669Z,19.63
2018-06-30T21:17:42.686Z,19.56
2018-06-30T21:20:10.696Z,19.28
2018-06-30T21:22:38.697Z,19.21
2018-06-30T21:25:06.776Z,19.11
2018-06-30T21:27:34.811Z,19.11
2018-06-30T21:30:02.886Z,19.01
2018-06-30T21:32:30.964Z,19.01
2018-06-30T21:34:59.001Z,18.98
2018-06-30T21:37:27.034Z,18.91
2018-06-30T21:39:55.074Z,18.84
2018-06-30T21:42:23.144Z,18.90
2018-06-30T21:44:51.322Z,18.83
2018-06-30T21:47:19.304Z,18.75
2018-06-30T21:49:47.296Z,18.68
2018-06-30T21:52:15.300Z,18.55
2018-06-30T21:54:43.317Z,18.44
2018-06-30T21:57:11.375Z,18.40
2018-06-30T21:59:39.370Z,18.31
2018-06-30T22:02:08.740Z,18.16
2018-06-30T22:04:37.154Z,18.12
2018-06-30T22:07:05.157Z,18.03
2018-06-30T22:09:33.178Z,18.07
2018-06-30T22:12:01.201Z,17.97
2018-06-30T22:14:29.225Z,17.96
2018-06-30T22:16:57.241Z,17.89
2018-06-30T22:19:25.341Z,17.87
2018-06-30T22:21:54.126Z,17.88
2018-06-30T22:24:22.225Z,17.78
2018-06-30T22:26:50.228Z,17.78
2018-06-30T22:29:18.245Z,17.76
2018-06-30T22:31:46.257Z,17.67
2018-06-30T22:34:14.250Z,17.69
2018-06-30T22:36:42.244Z,17.67
2018-06-30T22:39:11.773Z,17.57
2018-06-30T22:41:39.865Z,17.56
2018-06-30T22:44:07.976Z,17.46
2018-06-30T22:46:36.989Z,17.54
2018-06-30T22:49:05.085Z,17.69
2018-06-30T22:51:33.148Z,17.76
2018-06-30T22:54:01.195Z,17.66
2018-06-30T22:56:29.207Z,17.82
2018-06-30T22:58:57.174Z,17.76
2018-06-30T23:01:25.181Z,17.72
2018-06-30T23:03:53.234Z,17.79
2018-06-30T23:06:21.237Z,17.73
2018-06-30T23:08:53.374Z,17.59
2018-06-30T23:11:21.598Z,17.57
2018-06-30T23:13:49.614Z,17.51
2018-06-30T23:16:17.656Z,17.40
2018-06-30T23:18:45.676Z,17.30
2018-06-30T23:21:13.670Z,17.23
2018-06-30T23:23:41.703Z,17.15
2018-06-30T23:26:09.702Z,17.07
2018-06-30T23:28:37.737Z,17.06
2018-06-30T23:31:05.808Z,17.00
2018-06-30T23:33:33.883Z,16.89
2018-06-30T23:36:01.873Z,16.85
2018-06-30T23:38:29.899Z,16.84
2018-06-30T23:40:57.896Z,16.78
2018-06-30T23:43:25.926Z,16.78
2018-06-30T23:45:54.008Z,16.85
2018-06-30T23:48:22.021Z,16.64
2018-06-30T23:50:50.020Z,16.58
2018-06-30T23:53:18.044Z,16.56
2018-06-30T23:55:46.041Z,16.60
2018-06-30T23:58:14.041Z,16.63
